Time;durP1;ratioP1;P1;durP2;ratioP2;P2;SDS_P1;SDS_P2;PMS_P1;PMS_P2;Temp;Humidity;BMP_temperature;BMP_pressure;BME280_temperature;BME280_humidity;BME280_pressure;Samples;Min_cycle;Max_cycle;Signal;HPM_P1;HPM_P2
2021/09/06 00:01:38;;;;;;;19.08;12.77;;;;;;;;;;4985750;28;20229;-69
2021/09/06 00:04:03;;;;;;;16.15;12.60;;;;;;;;;;4982041;28;20207;-69
2021/09/06 00:06:29;;;;;;;16.10;12.40;;;;;;;;;;4980513;28;20208;-71
2021/09/06 00:08:54;;;;;;;18.20;12.18;;;;;;;;;;4981105;28;20226;-71
2021/09/06 00:11:19;;;;;;;17.27;12.10;;;;;;;;;;4982603;28;20233;-71
2021/09/06 00:13:45;;;;;;;16.88;12.57;;;;;;;;;;4985583;28;20187;-71
2021/09/06 00:16:10;;;;;;;17.48;12.88;;;;;;;;;;4945551;28;1071570;-71
2021/09/06 00:18:36;;;;;;;18.67;13.10;;;;;;;;;;4986630;28;20653;-71
2021/09/06 00:21:03;;;;;;;16.92;12.63;;;;;;;;;;4986778;28;20190;-71
2021/09/06 00:23:28;;;;;;;19.52;14.10;;;;;;;;;;4984089;28;20184;-69
2021/09/06 00:25:53;;;;;;;20.45;13.77;;;;;;;;;;4982806;28;20561;-71
2021/09/06 00:28:18;;;;;;;15.55;12.48;;;;;;;;;;4985385;28;20656;-72
2021/09/06 00:30:44;;;;;;;15.38;12.52;;;;;;;;;;4982333;28;20593;-72
2021/09/06 00:33:09;;;;;;;17.33;12.48;;;;;;;;;;4990257;28;20238;-72
2021/09/06 00:35:35;;;;;;;20.85;15.25;;;;;;;;;;4988281;28;20287;-69
2021/09/06 00:38:00;;;;;;;16.88;12.73;;;;;;;;;;4982816;28;20239;-72
2021/09/06 00:40:25;;;;;;;18.85;13.52;;;;;;;;;;4995555;28;20179;-72
2021/09/06 00:42:51;;;;;;;16.77;12.77;;;;;;;;;;4992404;28;20254;-72
2021/09/06 00:45:16;;;;;;;21.38;13.60;;;;;;;;;;4991577;28;21348;-72
2021/09/06 00:47:42;;;;;;;20.77;13.07;;;;;;;;;;4989752;28;20193;-71
2021/09/06 00:50:09;;;;;;;16.00;13.13;;;;;;;;;;4986609;28;20258;-71
2021/09/06 00:52:38;;;;;;;21.55;14.07;;;;;;;;;;4986683;28;20219;-71
2021/09/06 00:55:04;;;;;;;22.15;14.88;;;;;;;;;;4988472;28;20241;-71
2021/09/06 00:57:30;;;;;;;16.23;12.88;;;;;;;;;;4993092;28;20172;-71
2021/09/06 00:59:55;;;;;;;17.73;12.98;;;;;;;;;;4993775;28;20172;-72
2021/09/06 01:02:20;;;;;;;17.30;12.52;;;;;;;;;;4982847;28;20722;-72
2021/09/06 01:04:45;;;;;;;16.23;12.60;;;;;;;;;;4984711;28;20195;-70
2021/09/06 01:07:11;;;;;;;20.75;14.27;;;;;;;;;;4987549;28;20191;-69
2021/09/06 01:09:36;;;;;;;22.02;15.10;;;;;;;;;;4986601;28;20192;-69
2021/09/06 01:12:01;;;;;;;21.40;15.13;;;;;;;;;;4991245;28;20172;-70
2021/09/06 01:14:26;;;;;;;20.13;16.13;;;;;;;;;;5002759;28;20222;-71
2021/09/06 01:16:52;;;;;;;18.30;14.10;;;;;;;;;;4981498;28;20211;-70
2021/09/06 01:19:17;;;;;;;20.97;13.50;;;;;;;;;;4989376;28;20212;-70
2021/09/06 01:21:42;;;;;;;17.98;14.52;;;;;;;;;;4990378;28;20206;-69
2021/09/06 01:24:07;;;;;;;20.42;14.57;;;;;;;;;;4982435;28;20299;-71
2021/09/06 01:26:33;;;;;;;20.13;14.02;;;;;;;;;;4990284;28;20182;-70
2021/09/06 01:28:58;;;;;;;21.13;14.63;;;;;;;;;;4972160;28;20175;-71
2021/09/06 01:31:24;;;;;;;22.53;15.37;;;;;;;;;;4974050;28;20707;-71
2021/09/06 01:33:49;;;;;;;20.55;14.45;;;;;;;;;;4988264;28;20180;-70
2021/09/06 01:36:14;;;;;;;20.75;15.35;;;;;;;;;;4973417;28;20184;-71
2021/09/06 01:38:39;;;;;;;15.98;12.18;;;;;;;;;;4980644;28;20208;-71
2021/09/06 01:41:05;;;;;;;16.38;12.40;;;;;;;;;;4989987;28;20207;-70
2021/09/06 01:43:30;;;;;;;20.73;15.20;;;;;;;;;;4989734;28;20187;-70
2021/09/06 01:45:55;;;;;;;18.97;13.63;;;;;;;;;;4987515;28;20207;-71
2021/09/06 01:48:20;;;;;;;16.80;13.80;;;;;;;;;;4986074;28;20187;-71
2021/09/06 01:50:45;;;;;;;21.98;15.25;;;;;;;;;;4968990;28;20180;-71
2021/09/06 01:53:11;;;;;;;21.10;14.37;;;;;;;;;;4988690;28;20274;-71
2021/09/06 01:55:36;;;;;;;22.83;15.33;;;;;;;;;;4981558;28;20654;-70
2021/09/06 01:58:01;;;;;;;23.60;15.60;;;;;;;;;;4987100;28;20290;-71
2021/09/06 02:00:26;;;;;;;21.17;15.70;;;;;;;;;;4993752;28;20242;-71
2021/09/06 02:02:51;;;;;;;21.17;16.40;;;;;;;;;;4988939;28;20186;-71
2021/09/06 02:05:17;;;;;;;24.00;16.20;;;;;;;;;;4970423;28;21680;-71
2021/09/06 02:07:42;;;;;;;25.03;16.57;;;;;;;;;;4993296;28;20665;-71
2021/09/06 02:10:07;;;;;;;21.43;15.43;;;;;;;;;;4998299;28;20192;-70
2021/09/06 02:12:33;;;;;;;25.60;17.37;;;;;;;;;;4991170;28;20176;-70
2021/09/06 02:14:58;;;;;;;23.97;16.70;;;;;;;;;;5007874;23;20233;-70
2021/09/06 02:17:23;;;;;;;20.53;15.57;;;;;;;;;;5007523;28;20712;-70
2021/09/06 02:19:48;;;;;;;18.20;14.87;;;;;;;;;;5004461;28;20179;-70
2021/09/06 02:22:13;;;;;;;18.63;14.57;;;;;;;;;;5012113;28;20182;-68
2021/09/06 02:24:38;;;;;;;19.40;14.83;;;;;;;;;;5003421;28;20286;-69
2021/09/06 02:27:04;;;;;;;23.07;16.07;;;;;;;;;;4986688;28;20271;-68
2021/09/06 02:29:29;;;;;;;22.77;15.43;;;;;;;;;;4973749;28;20653;-69
2021/09/06 02:31:54;;;;;;;20.08;13.38;;;;;;;;;;4988478;28;20179;-69
2021/09/06 02:34:19;;;;;;;19.43;14.90;;;;;;;;;;4989687;28;20196;-69
2021/09/06 02:36:44;;;;;;;25.57;17.17;;;;;;;;;;4989627;28;20545;-69
2021/09/06 02:39:10;;;;;;;23.20;15.40;;;;;;;;;;4982573;28;20207;-71
2021/09/06 02:41:35;;;;;;;24.00;16.70;;;;;;;;;;4988362;28;20202;-68
2021/09/06 02:44:00;;;;;;;24.83;17.70;;;;;;;;;;4987418;28;20278;-69
2021/09/06 02:46:25;;;;;;;23.75;16.48;;;;;;;;;;4988706;28;20685;-69
2021/09/06 02:48:50;;;;;;;25.92;16.85;;;;;;;;;;4987659;28;20266;-69
2021/09/06 02:51:16;;;;;;;25.38;16.25;;;;;;;;;;4989008;28;20195;-69
2021/09/06 02:53:41;;;;;;;21.65;15.82;;;;;;;;;;4988890;28;20217;-68
2021/09/06 02:56:06;;;;;;;26.92;17.77;;;;;;;;;;4991122;28;20208;-69
2021/09/06 02:58:31;;;;;;;27.77;18.87;;;;;;;;;;4984486;28;20207;-69
2021/09/06 03:00:56;;;;;;;28.57;18.13;;;;;;;;;;4964234;28;20267;-69
2021/09/06 03:03:22;;;;;;;24.47;16.33;;;;;;;;;;4975165;28;20184;-69
2021/09/06 03:05:47;;;;;;;21.88;15.68;;;;;;;;;;4972655;28;20203;-68
2021/09/06 03:08:12;;;;;;;24.57;16.40;;;;;;;;;;4970365;28;20237;-69
2021/09/06 03:10:37;;;;;;;24.87;16.83;;;;;;;;;;4973512;28;20906;-68
2021/09/06 03:13:02;;;;;;;24.30;16.90;;;;;;;;;;4972497;28;20227;-69
2021/09/06 03:15:28;;;;;;;25.00;16.90;;;;;;;;;;4977517;28;20235;-68
2021/09/06 03:17:53;;;;;;;23.50;16.83;;;;;;;;;;4978334;28;20200;-69
2021/09/06 03:20:18;;;;;;;22.97;17.13;;;;;;;;;;4970894;28;20179;-69
2021/09/06 03:22:44;;;;;;;28.80;18.43;;;;;;;;;;4970847;28;20180;-68
2021/09/06 03:25:09;;;;;;;27.17;17.43;;;;;;;;;;4975518;28;20199;-70
2021/09/06 03:27:34;;;;;;;23.70;17.27;;;;;;;;;;4970412;28;20175;-68
2021/09/06 03:29:59;;;;;;;27.93;17.53;;;;;;;;;;4984066;28;20187;-69
2021/09/06 03:32:25;;;;;;;24.63;17.20;;;;;;;;;;4980815;28;20646;-68
2021/09/06 03:34:50;;;;;;;23.67;17.57;;;;;;;;;;4980933;28;20282;-71
2021/09/06 03:37:15;;;;;;;29.03;18.80;;;;;;;;;;4981539;28;20186;-68
2021/09/06 03:39:40;;;;;;;30.47;18.70;;;;;;;;;;4973802;28;20302;-69
2021/09/06 03:42:05;;;;;;;30.43;20.43;;;;;;;;;;4972923;28;20176;-69
2021/09/06 03:44:31;;;;;;;30.37;21.10;;;;;;;;;;4973775;28;20682;-68
2021/09/06 03:46:56;;;;;;;28.97;20.67;;;;;;;;;;4954554;28;20684;-68
2021/09/06 03:49:21;;;;;;;29.23;20.37;;;;;;;;;;4970547;28;20752;-69
2021/09/06 03:51:46;;;;;;;28.67;18.47;;;;;;;;;;4980281;28;20186;-69
2021/09/06 03:54:12;;;;;;;29.50;19.27;;;;;;;;;;4972137;28;20294;-68
2021/09/06 03:56:37;;;;;;;29.50;19.13;;;;;;;;;;4970832;28;20324;-68
2021/09/06 03:59:02;;;;;;;22.07;16.30;;;;;;;;;;4969998;28;20233;-68
2021/09/06 04:01:28;;;;;;;32.20;19.73;;;;;;;;;;4975247;28;20629;-67
2021/09/06 04:03:53;;;;;;;30.60;20.43;;;;;;;;;;4971422;28;20184;-72
2021/09/06 04:06:18;;;;;;;30.83;19.50;;;;;;;;;;4978836;28;20290;-68
2021/09/06 04:08:43;;;;;;;31.00;20.10;;;;;;;;;;4981528;28;20195;-68
2021/09/06 04:11:08;;;;;;;28.00;19.07;;;;;;;;;;4977253;28;20204;-68
2021/09/06 04:13:34;;;;;;;33.73;21.07;;;;;;;;;;4957137;28;21379;-68
2021/09/06 04:15:59;;;;;;;32.67;21.50;;;;;;;;;;4979880;28;20310;-71
2021/09/06 04:18:26;;;;;;;29.27;18.17;;;;;;;;;;4975527;28;20681;-70
2021/09/06 04:20:51;;;;;;;31.60;20.50;;;;;;;;;;4978623;28;20442;-68
2021/09/06 04:23:17;;;;;;;34.67;21.03;;;;;;;;;;4974478;28;20214;-68
2021/09/06 04:25:42;;;;;;;31.43;19.37;;;;;;;;;;4976770;28;20224;-70
2021/09/06 04:28:07;;;;;;;34.60;21.17;;;;;;;;;;4975589;28;20202;-69
2021/09/06 04:30:32;;;;;;;29.80;20.00;;;;;;;;;;4977362;28;20177;-68
2021/09/06 04:32:57;;;;;;;29.37;19.70;;;;;;;;;;4959544;28;20310;-68
2021/09/06 04:35:22;;;;;;;27.30;19.27;;;;;;;;;;4975336;28;20212;-69
2021/09/06 04:37:48;;;;;;;24.83;17.83;;;;;;;;;;4975964;28;20691;-68
2021/09/06 04:40:13;;;;;;;27.20;19.07;;;;;;;;;;4977960;28;20180;-68
2021/09/06 04:42:38;;;;;;;28.60;18.53;;;;;;;;;;4972733;28;20179;-68
2021/09/06 04:45:04;;;;;;;30.10;18.93;;;;;;;;;;4980896;28;20237;-68
2021/09/06 04:47:29;;;;;;;30.37;19.97;;;;;;;;;;4974765;28;20184;-68
2021/09/06 04:49:54;;;;;;;30.50;19.37;;;;;;;;;;4973271;28;20270;-68
2021/09/06 04:52:19;;;;;;;28.23;18.77;;;;;;;;;;4977809;28;20191;-68
2021/09/06 04:54:44;;;;;;;28.17;19.43;;;;;;;;;;4971501;28;20199;-68
2021/09/06 04:57:09;;;;;;;28.20;18.53;;;;;;;;;;4972207;28;20187;-68
2021/09/06 04:59:34;;;;;;;28.90;18.60;;;;;;;;;;4972401;28;20619;-69
2021/09/06 05:02:00;;;;;;;27.27;19.37;;;;;;;;;;4974728;28;20176;-69
2021/09/06 05:04:25;;;;;;;29.83;21.27;;;;;;;;;;4972671;28;20672;-70
2021/09/06 05:06:50;;;;;;;33.50;20.93;;;;;;;;;;4956457;28;20196;-69
2021/09/06 05:09:15;;;;;;;32.47;21.10;;;;;;;;;;4975143;28;20250;-70
2021/09/06 05:11:40;;;;;;;34.77;21.53;;;;;;;;;;4973051;28;20193;-69
2021/09/06 05:14:06;;;;;;;33.93;21.27;;;;;;;;;;4973393;28;20269;-69
2021/09/06 05:16:31;;;;;;;33.73;21.47;;;;;;;;;;4974446;28;20196;-69
2021/09/06 05:18:56;;;;;;;31.20;20.97;;;;;;;;;;4974956;28;20216;-69
2021/09/06 05:21:21;;;;;;;36.57;21.50;;;;;;;;;;4974979;28;20187;-69
2021/09/06 05:23:46;;;;;;;29.13;19.77;;;;;;;;;;4973275;28;20167;-68
2021/09/06 05:26:12;;;;;;;30.03;20.97;;;;;;;;;;4973208;28;20226;-68
2021/09/06 05:28:37;;;;;;;35.07;21.87;;;;;;;;;;4971485;28;20334;-69
2021/09/06 05:31:03;;;;;;;38.07;22.27;;;;;;;;;;4975832;28;20572;-68
2021/09/06 05:33:29;;;;;;;37.40;23.90;;;;;;;;;;4970256;28;20195;-69
2021/09/06 05:35:54;;;;;;;35.57;22.00;;;;;;;;;;4976232;28;20211;-69
2021/09/06 05:38:19;;;;;;;33.30;21.33;;;;;;;;;;4972989;28;20207;-69
2021/09/06 05:40:44;;;;;;;34.07;20.37;;;;;;;;;;4974971;28;20202;-69
2021/09/06 05:43:09;;;;;;;39.03;23.47;;;;;;;;;;4972125;28;21390;-68
2021/09/06 05:45:34;;;;;;;51.93;25.80;;;;;;;;;;4978302;28;20207;-68
2021/09/06 05:48:00;;;;;;;39.73;25.03;;;;;;;;;;4970041;28;20258;-67
2021/09/06 05:50:26;;;;;;;43.07;22.37;;;;;;;;;;4979687;28;20646;-68
2021/09/06 05:52:51;;;;;;;42.47;25.40;;;;;;;;;;4974074;28;20220;-68
2021/09/06 05:55:16;;;;;;;42.13;24.70;;;;;;;;;;4971235;28;21692;-68
2021/09/06 05:57:41;;;;;;;42.30;24.63;;;;;;;;;;4976769;28;20184;-71
2021/09/06 06:00:08;;;;;;;41.03;23.40;;;;;;;;;;4972540;28;20982;-69
2021/09/06 06:02:34;;;;;;;38.42;22.95;;;;;;;;;;4974036;28;20184;-70
2021/09/06 06:04:59;;;;;;;40.28;23.23;;;;;;;;;;4970868;28;20216;-69
2021/09/06 06:07:24;;;;;;;35.67;23.13;;;;;;;;;;4972171;28;20254;-70
2021/09/06 06:09:52;;;;;;;34.92;23.00;;;;;;;;;;4945670;28;20198;-70
2021/09/06 06:12:17;;;;;;;37.38;23.33;;;;;;;;;;4955392;28;20671;-69
2021/09/06 06:14:42;;;;;;;34.47;21.40;;;;;;;;;;4974401;28;20253;-69
2021/09/06 06:17:08;;;;;;;30.92;21.20;;;;;;;;;;4974852;28;20184;-70
2021/09/06 06:19:33;;;;;;;29.40;22.58;;;;;;;;;;4956229;28;20234;-70
2021/09/06 06:21:58;;;;;;;30.02;21.02;;;;;;;;;;4974248;28;20183;-70
2021/09/06 06:24:23;;;;;;;29.90;21.30;;;;;;;;;;4960377;28;20207;-69
2021/09/06 06:26:49;;;;;;;31.92;22.35;;;;;;;;;;4953887;28;20179;-69
2021/09/06 06:29:14;;;;;;;26.73;19.47;;;;;;;;;;4971408;28;20629;-69
2021/09/06 06:31:39;;;;;;;28.20;19.00;;;;;;;;;;4970035;28;20620;-69
2021/09/06 06:34:04;;;;;;;27.27;19.23;;;;;;;;;;4989187;28;20180;-69
2021/09/06 06:36:29;;;;;;;26.25;19.60;;;;;;;;;;4979419;28;20198;-70
2021/09/06 06:38:55;;;;;;;25.48;19.65;;;;;;;;;;4974297;28;20210;-69
2021/09/06 06:41:20;;;;;;;25.73;19.70;;;;;;;;;;4974695;28;20551;-70
2021/09/06 06:43:45;;;;;;;25.77;19.38;;;;;;;;;;4978368;28;20728;-69
2021/09/06 06:46:10;;;;;;;27.00;19.15;;;;;;;;;;4979492;28;20204;-69
2021/09/06 06:48:35;;;;;;;28.83;20.25;;;;;;;;;;4975332;28;20180;-69
2021/09/06 06:51:00;;;;;;;28.40;19.70;;;;;;;;;;4978526;28;20302;-69
2021/09/06 06:53:26;;;;;;;24.90;19.65;;;;;;;;;;4971578;28;20202;-70
2021/09/06 06:55:51;;;;;;;27.17;19.80;;;;;;;;;;4975631;28;20269;-69
2021/09/06 06:58:16;;;;;;;23.10;18.30;;;;;;;;;;4972139;28;20701;-68
2021/09/06 07:00:41;;;;;;;25.07;18.37;;;;;;;;;;4974771;28;20196;-70
2021/09/06 07:03:06;;;;;;;23.27;18.27;;;;;;;;;;4984675;28;20418;-69
2021/09/06 07:05:32;;;;;;;24.08;17.60;;;;;;;;;;4991157;28;20588;-70
2021/09/06 07:07:57;;;;;;;24.63;17.77;;;;;;;;;;4989333;28;20180;-70
2021/09/06 07:10:22;;;;;;;24.80;19.33;;;;;;;;;;4991218;28;20492;-70
2021/09/06 07:12:47;;;;;;;22.67;17.38;;;;;;;;;;4987659;28;20421;-67
2021/09/06 07:15:12;;;;;;;21.70;18.13;;;;;;;;;;4976873;28;20216;-69
2021/09/06 07:17:38;;;;;;;22.95;18.45;;;;;;;;;;4990409;28;21262;-70
2021/09/06 07:20:03;;;;;;;22.00;17.77;;;;;;;;;;4991340;28;20183;-70
2021/09/06 07:22:29;;;;;;;24.20;17.90;;;;;;;;;;4986011;28;20180;-69
2021/09/06 07:24:54;;;;;;;21.90;18.02;;;;;;;;;;4980391;28;20204;-70
2021/09/06 07:27:19;;;;;;;24.63;17.33;;;;;;;;;;4974745;28;20685;-69
2021/09/06 07:29:44;;;;;;;18.88;16.25;;;;;;;;;;4977045;28;20429;-69
2021/09/06 07:32:10;;;;;;;20.17;16.03;;;;;;;;;;4981349;28;20210;-68
2021/09/06 07:34:35;;;;;;;22.17;17.83;;;;;;;;;;4978180;28;20971;-69
2021/09/06 07:37:04;;;;;;;20.58;17.15;;;;;;;;;;4980920;28;20291;-69
2021/09/06 07:39:29;;;;;;;21.05;17.20;;;;;;;;;;4979452;28;20231;-69
2021/09/06 07:41:54;;;;;;;21.60;17.17;;;;;;;;;;4982183;28;20415;-69
2021/09/06 07:44:20;;;;;;;21.95;17.05;;;;;;;;;;4985235;28;20456;-68
2021/09/06 07:46:45;;;;;;;21.10;16.53;;;;;;;;;;4985068;28;20180;-69
2021/09/06 07:49:10;;;;;;;21.60;17.83;;;;;;;;;;4984162;28;20886;-69
2021/09/06 07:51:35;;;;;;;17.80;14.43;;;;;;;;;;4989550;28;20441;-69
2021/09/06 07:54:01;;;;;;;21.73;15.53;;;;;;;;;;4985300;28;20941;-68
2021/09/06 07:56:27;;;;;;;20.70;16.67;;;;;;;;;;4981268;28;20865;-69
2021/09/06 07:58:52;;;;;;;19.45;16.92;;;;;;;;;;4985379;28;20211;-69
2021/09/06 08:01:17;;;;;;;18.60;14.23;;;;;;;;;;4983318;28;20190;-68
2021/09/06 08:03:42;;;;;;;23.13;16.30;;;;;;;;;;4985397;28;20425;-69
2021/09/06 08:06:07;;;;;;;20.33;15.95;;;;;;;;;;4984011;28;20566;-68
2021/09/06 08:08:33;;;;;;;21.97;15.63;;;;;;;;;;4983833;28;20193;-68
2021/09/06 08:10:58;;;;;;;19.03;16.27;;;;;;;;;;4983666;28;20536;-69
2021/09/06 08:13:23;;;;;;;22.90;16.17;;;;;;;;;;4984328;28;20942;-68
2021/09/06 08:15:48;;;;;;;19.03;15.93;;;;;;;;;;4983088;28;20478;-69
2021/09/06 08:18:13;;;;;;;21.17;14.75;;;;;;;;;;4981576;28;20835;-69
2021/09/06 08:20:39;;;;;;;18.27;14.63;;;;;;;;;;4986107;28;20546;-68
2021/09/06 08:23:04;;;;;;;18.10;15.40;;;;;;;;;;4982872;28;20172;-68
2021/09/06 08:25:30;;;;;;;17.83;13.88;;;;;;;;;;4977967;28;20196;-69
2021/09/06 08:27:55;;;;;;;16.85;15.05;;;;;;;;;;4976423;28;20203;-68
2021/09/06 08:30:20;;;;;;;19.73;16.40;;;;;;;;;;4982605;28;20254;-69
2021/09/06 08:32:45;;;;;;;18.90;15.70;;;;;;;;;;4980673;28;20241;-69
2021/09/06 08:35:11;;;;;;;20.90;17.25;;;;;;;;;;4978352;28;20196;-69
2021/09/06 08:37:37;;;;;;;20.02;16.10;;;;;;;;;;4977876;28;20176;-69
2021/09/06 08:40:03;;;;;;;20.33;15.05;;;;;;;;;;4984584;28;20207;-69
2021/09/06 08:42:28;;;;;;;18.35;14.30;;;;;;;;;;4983289;28;20172;-69
2021/09/06 08:44:54;;;;;;;16.83;13.68;;;;;;;;;;4979387;28;20253;-69
2021/09/06 08:47:19;;;;;;;18.67;14.40;;;;;;;;;;4979157;28;20745;-68
2021/09/06 08:49:45;;;;;;;19.83;15.45;;;;;;;;;;4987758;28;20210;-69
2021/09/06 08:52:11;;;;;;;15.02;12.50;;;;;;;;;;4980930;28;20199;-69
2021/09/06 08:54:36;;;;;;;16.05;13.32;;;;;;;;;;4980090;28;20211;-69
2021/09/06 08:57:01;;;;;;;18.77;13.50;;;;;;;;;;4982566;28;20210;-69
2021/09/06 08:59:26;;;;;;;14.27;12.13;;;;;;;;;;4983385;28;20586;-68
2021/09/06 09:01:52;;;;;;;15.85;12.73;;;;;;;;;;4977977;28;20234;-68
2021/09/06 09:04:18;;;;;;;14.45;12.35;;;;;;;;;;4964056;28;20210;-69
2021/09/06 09:06:46;;;;;;;18.17;12.98;;;;;;;;;;4979455;28;20314;-68
2021/09/06 09:09:11;;;;;;;15.95;11.93;;;;;;;;;;4979001;28;20191;-69
2021/09/06 09:11:36;;;;;;;12.10;10.77;;;;;;;;;;4981645;28;20187;-69
2021/09/06 09:14:12;;;;;;;12.90;10.70;;;;;;;;;;4980065;28;20717;-69
2021/09/06 09:16:37;;;;;;;14.05;10.32;;;;;;;;;;4981141;28;20803;-69
2021/09/06 09:19:05;;;;;;;12.88;11.30;;;;;;;;;;4980015;28;20208;-69
2021/09/06 09:21:30;;;;;;;10.63;9.45;;;;;;;;;;4965020;28;20676;-69
2021/09/06 09:24:01;;;;;;;10.90;9.80;;;;;;;;;;4979650;28;20192;-69
2021/09/06 09:26:27;;;;;;;15.20;9.85;;;;;;;;;;4981532;28;20708;-68
2021/09/06 09:28:53;;;;;;;13.95;10.70;;;;;;;;;;4982931;28;20645;-69
2021/09/06 09:31:20;;;;;;;14.00;10.18;;;;;;;;;;4961156;28;20231;-69
2021/09/06 09:33:47;;;;;;;13.85;10.38;;;;;;;;;;4973849;28;20179;-68
2021/09/06 09:36:12;;;;;;;15.05;11.18;;;;;;;;;;4980339;28;20246;-69
2021/09/06 09:38:37;;;;;;;13.82;11.02;;;;;;;;;;4974561;28;20203;-69
2021/09/06 09:41:10;;;;;;;16.08;11.40;;;;;;;;;;4981123;28;20172;-69
2021/09/06 09:43:35;;;;;;;13.45;10.35;;;;;;;;;;4974948;28;20176;-69
2021/09/06 09:46:02;;;;;;;14.30;10.23;;;;;;;;;;4974214;28;20766;-69
2021/09/06 09:48:27;;;;;;;12.75;9.68;;;;;;;;;;4978526;28;20656;-69
2021/09/06 09:50:52;;;;;;;11.33;9.50;;;;;;;;;;4982501;28;20192;-69
2021/09/06 09:53:17;;;;;;;11.73;8.30;;;;;;;;;;4980723;28;20184;-69
2021/09/06 09:55:43;;;;;;;11.70;9.90;;;;;;;;;;4980642;28;20207;-69
2021/09/06 09:58:08;;;;;;;10.87;8.40;;;;;;;;;;4979978;28;20467;-69
2021/09/06 10:00:33;;;;;;;9.60;7.57;;;;;;;;;;4980553;28;20654;-69
2021/09/06 10:03:00;;;;;;;10.73;8.70;;;;;;;;;;4979728;28;20509;-69
2021/09/06 10:05:27;;;;;;;9.98;7.78;;;;;;;;;;4980973;28;20203;-69
2021/09/06 10:07:53;;;;;;;10.13;8.68;;;;;;;;;;4982827;28;20203;-69
2021/09/06 10:10:22;;;;;;;12.07;8.75;;;;;;;;;;4981807;28;20266;-68
2021/09/06 10:13:07;;;;;;;9.25;8.07;;;;;;;;;;4985226;28;20188;-70
2021/09/06 10:15:33;;;;;;;8.95;7.80;;;;;;;;;;4979620;28;20416;-68
2021/09/06 10:18:13;;;;;;;11.05;8.02;;;;;;;;;;4979662;28;20603;-67
2021/09/06 10:20:38;;;;;;;11.75;8.55;;;;;;;;;;4976930;28;20733;-68
2021/09/06 10:23:08;;;;;;;9.73;8.27;;;;;;;;;;4978509;28;20262;-68
2021/09/06 10:25:34;;;;;;;8.35;7.55;;;;;;;;;;4963205;28;20471;-69
2021/09/06 10:28:07;;;;;;;8.50;7.70;;;;;;;;;;4982415;28;20179;-69
2021/09/06 10:30:34;;;;;;;9.25;7.38;;;;;;;;;;4981121;28;20192;-68
2021/09/06 10:32:59;;;;;;;8.65;7.68;;;;;;;;;;4981191;28;20937;-68
2021/09/06 10:35:27;;;;;;;7.60;6.27;;;;;;;;;;4978772;28;20211;-68
2021/09/06 10:38:00;;;;;;;12.48;9.10;;;;;;;;;;4982915;28;20183;-68
2021/09/06 10:40:27;;;;;;;12.55;9.10;;;;;;;;;;4977739;28;20185;-69
2021/09/06 10:42:52;;;;;;;9.88;7.80;;;;;;;;;;4978201;28;20178;-68
2021/09/06 10:45:17;;;;;;;12.50;9.00;;;;;;;;;;4972970;28;20195;-68
2021/09/06 10:47:43;;;;;;;13.13;9.73;;;;;;;;;;4979909;28;20429;-69
2021/09/06 10:50:11;;;;;;;10.57;9.48;;;;;;;;;;4991629;28;20195;-68
2021/09/06 10:52:37;;;;;;;7.55;6.85;;;;;;;;;;4995565;28;20229;-69
2021/09/06 10:55:02;;;;;;;7.80;6.93;;;;;;;;;;4981964;28;20203;-68
2021/09/06 10:57:27;;;;;;;9.13;8.20;;;;;;;;;;4983467;28;20273;-69
2021/09/06 10:59:52;;;;;;;10.10;8.63;;;;;;;;;;4983229;28;20314;-69
2021/09/06 11:02:17;;;;;;;12.00;9.13;;;;;;;;;;4975315;28;20234;-69
2021/09/06 11:04:43;;;;;;;9.85;8.85;;;;;;;;;;4983721;28;20223;-69
2021/09/06 11:07:08;;;;;;;11.35;9.52;;;;;;;;;;4981110;28;20549;-69
2021/09/06 11:09:34;;;;;;;11.30;8.43;;;;;;;;;;4981471;28;20175;-69
2021/09/06 11:12:00;;;;;;;12.35;10.13;;;;;;;;;;4983618;28;20179;-68
2021/09/06 11:14:52;;;;;;;9.20;8.30;;;;;;;;;;4979340;28;20330;-69
2021/09/06 11:17:22;;;;;;;9.73;8.43;;;;;;;;;;4978270;28;20202;-69
2021/09/06 11:19:49;;;;;;;9.13;7.95;;;;;;;;;;4977622;28;20643;-68
2021/09/06 11:22:17;;;;;;;10.02;8.38;;;;;;;;;;4978566;28;20175;-67
2021/09/06 11:24:43;;;;;;;10.82;9.18;;;;;;;;;;4981540;28;20194;-68
2021/09/06 11:27:19;;;;;;;8.65;7.65;;;;;;;;;;4978339;28;20171;-68
2021/09/06 11:29:45;;;;;;;9.43;8.50;;;;;;;;;;4979813;28;20355;-70
2021/09/06 11:32:10;;;;;;;9.37;8.10;;;;;;;;;;4977934;28;20665;-68
2021/09/06 11:34:35;;;;;;;12.07;9.23;;;;;;;;;;4982076;28;20412;-69
2021/09/06 11:37:04;;;;;;;10.27;8.33;;;;;;;;;;4979555;28;20710;-69
2021/09/06 11:39:30;;;;;;;12.38;8.82;;;;;;;;;;4978350;28;20454;-69
2021/09/06 11:41:57;;;;;;;9.95;8.25;;;;;;;;;;4982909;28;20175;-68
2021/09/06 11:44:22;;;;;;;9.57;8.68;;;;;;;;;;4976971;28;20191;-69
2021/09/06 11:46:47;;;;;;;11.23;8.48;;;;;;;;;;4982419;28;20187;-68
2021/09/06 11:49:16;;;;;;;7.83;7.03;;;;;;;;;;4978839;28;20186;-69
2021/09/06 11:51:41;;;;;;;11.00;8.90;;;;;;;;;;4979910;28;20476;-68
2021/09/06 11:54:10;;;;;;;9.13;8.23;;;;;;;;;;4978908;28;20648;-68
2021/09/06 11:56:35;;;;;;;10.35;8.68;;;;;;;;;;4965995;28;20179;-68
2021/09/06 11:59:02;;;;;;;10.23;8.60;;;;;;;;;;4978189;28;20215;-69
2021/09/06 12:01:27;;;;;;;11.55;7.65;;;;;;;;;;4978436;28;20179;-68
2021/09/06 12:04:05;;;;;;;10.05;8.48;;;;;;;;;;4977023;28;20703;-68
2021/09/06 12:06:31;;;;;;;10.57;9.30;;;;;;;;;;4979561;28;22129;-68
2021/09/06 12:08:56;;;;;;;12.53;7.80;;;;;;;;;;4979989;28;20195;-67
2021/09/06 12:11:22;;;;;;;8.82;7.93;;;;;;;;;;4978583;28;20263;-68
2021/09/06 12:13:57;;;;;;;11.15;8.93;;;;;;;;;;4976693;28;20191;-69
2021/09/06 12:16:26;;;;;;;9.70;8.73;;;;;;;;;;4981241;28;20249;-68
2021/09/06 12:18:51;;;;;;;12.02;9.02;;;;;;;;;;4978958;28;20203;-69
2021/09/06 12:21:18;;;;;;;10.27;9.10;;;;;;;;;;4978263;28;20214;-67
2021/09/06 12:23:50;;;;;;;9.50;8.50;;;;;;;;;;4977706;28;20430;-68
2021/09/06 12:26:16;;;;;;;9.93;8.75;;;;;;;;;;4981487;28;20238;-68
2021/09/06 12:28:52;;;;;;;12.15;9.57;;;;;;;;;;4984393;28;20183;-69
2021/09/06 12:31:17;;;;;;;10.50;9.43;;;;;;;;;;4984752;28;20191;-68
2021/09/06 12:33:43;;;;;;;10.30;8.95;;;;;;;;;;4980690;28;20607;-68
2021/09/06 12:36:08;;;;;;;11.20;8.55;;;;;;;;;;4982563;28;20518;-69
2021/09/06 12:38:34;;;;;;;8.35;7.55;;;;;;;;;;4977814;28;20765;-69
2021/09/06 12:40:59;;;;;;;12.00;8.50;;;;;;;;;;4982403;28;20554;-68
2021/09/06 12:43:24;;;;;;;9.27;8.23;;;;;;;;;;4982893;28;20201;-69
2021/09/06 12:45:50;;;;;;;10.15;9.15;;;;;;;;;;4982926;28;20214;-68
2021/09/06 12:48:15;;;;;;;11.85;9.85;;;;;;;;;;4981085;28;20234;-68
2021/09/06 12:50:40;;;;;;;11.07;9.83;;;;;;;;;;4967599;28;20184;-68
2021/09/06 12:53:05;;;;;;;13.13;9.30;;;;;;;;;;4978641;28;20530;-68
2021/09/06 12:55:31;;;;;;;12.00;10.48;;;;;;;;;;4974087;28;20514;-69
2021/09/06 12:57:57;;;;;;;13.57;9.57;;;;;;;;;;4981867;28;20188;-69
2021/09/06 13:00:24;;;;;;;11.88;10.35;;;;;;;;;;4984540;28;20432;-68
2021/09/06 13:02:49;;;;;;;13.23;10.15;;;;;;;;;;4984491;28;20266;-68
2021/09/06 13:05:14;;;;;;;11.90;9.10;;;;;;;;;;4974877;28;20203;-68
2021/09/06 13:07:39;;;;;;;10.33;8.70;;;;;;;;;;4977140;28;20453;-69
2021/09/06 13:10:05;;;;;;;10.67;9.57;;;;;;;;;;4976285;28;20220;-68
2021/09/06 13:12:30;;;;;;;10.95;9.75;;;;;;;;;;4972104;28;20479;-69
2021/09/06 13:14:55;;;;;;;13.33;9.00;;;;;;;;;;4981333;28;20223;-69
2021/09/06 13:17:21;;;;;;;11.20;10.00;;;;;;;;;;4980700;28;20656;-69
2021/09/06 13:19:46;;;;;;;12.88;10.20;;;;;;;;;;4983137;28;20974;-69
2021/09/06 13:22:11;;;;;;;13.33;9.83;;;;;;;;;;4978720;28;20190;-68
2021/09/06 13:24:36;;;;;;;10.00;9.00;;;;;;;;;;4980711;28;20205;-69
2021/09/06 13:27:02;;;;;;;14.02;9.52;;;;;;;;;;4981119;28;20184;-69
2021/09/06 13:29:27;;;;;;;11.35;9.95;;;;;;;;;;4977931;28;20211;-68
2021/09/06 13:31:52;;;;;;;10.60;9.50;;;;;;;;;;4983298;28;22226;-68
2021/09/06 13:34:18;;;;;;;10.48;9.38;;;;;;;;;;4982434;28;20211;-69
2021/09/06 13:36:43;;;;;;;12.93;10.57;;;;;;;;;;4979325;28;20813;-68
2021/09/06 13:39:08;;;;;;;11.33;10.20;;;;;;;;;;4978466;28;20454;-69
2021/09/06 13:41:33;;;;;;;14.40;10.53;;;;;;;;;;4981615;28;20176;-69
2021/09/06 13:43:58;;;;;;;12.20;9.77;;;;;;;;;;4983349;28;20429;-68
2021/09/06 13:46:24;;;;;;;12.30;10.33;;;;;;;;;;4980437;28;20600;-69
2021/09/06 13:48:49;;;;;;;11.43;10.27;;;;;;;;;;4979735;28;20198;-68
2021/09/06 13:51:14;;;;;;;11.90;10.65;;;;;;;;;;4980206;28;20188;-69
2021/09/06 13:53:40;;;;;;;13.70;10.00;;;;;;;;;;4980376;28;20196;-68
2021/09/06 13:56:09;;;;;;;11.93;10.70;;;;;;;;;;4982784;28;20452;-67
2021/09/06 13:58:34;;;;;;;11.43;9.65;;;;;;;;;;4977424;28;20298;-68
2021/09/06 14:01:00;;;;;;;15.85;10.98;;;;;;;;;;4975732;28;20243;-68
2021/09/06 14:03:25;;;;;;;13.43;10.37;;;;;;;;;;4980193;28;20182;-68
2021/09/06 14:05:51;;;;;;;12.30;10.02;;;;;;;;;;4980247;28;20441;-68
2021/09/06 14:08:16;;;;;;;11.10;10.00;;;;;;;;;;4981072;28;20177;-67
2021/09/06 14:10:41;;;;;;;17.57;11.47;;;;;;;;;;4982976;28;20430;-68
2021/09/06 14:13:06;;;;;;;14.37;11.03;;;;;;;;;;4982469;28;20467;-68